sensor_id;sensor_type;location;lat;lon;timestamp;P1;durP1;ratioP1;P2;durP2;ratioP2
20511;SDS011;10414;52.074;5.126;2022-08-02T00:01:47;5.78;;;1.73;;
20511;SDS011;10414;52.074;5.126;2022-08-02T00:04:14;4.28;;;1.60;;
20511;SDS011;10414;52.074;5.126;2022-08-02T00:06:41;5.18;;;1.50;;
20511;SDS011;10414;52.074;5.126;2022-08-02T00:09:08;5.85;;;1.77;;
20511;SDS011;10414;52.074;5.126;2022-08-02T00:11:37;6.63;;;1.70;;
20511;SDS011;10414;52.074;5.126;2022-08-02T00:14:04;5.82;;;1.70;;
20511;SDS011;10414;52.074;5.126;2022-08-02T00:16:31;5.43;;;1.67;;
20511;SDS011;10414;52.074;5.126;2022-08-02T00:18:58;3.88;;;1.33;;
20511;SDS011;10414;52.074;5.126;2022-08-02T00:21:25;5.03;;;1.40;;
20511;SDS011;10414;52.074;5.126;2022-08-02T00:23:51;3.28;;;1.25;;
20511;SDS011;10414;52.074;5.126;2022-08-02T00:26:18;7.03;;;1.77;;
20511;SDS011;10414;52.074;5.126;2022-08-02T00:28:47;3.35;;;1.35;;
20511;SDS011;10414;52.074;5.126;2022-08-02T00:31:13;7.35;;;1.90;;
20511;SDS011;10414;52.074;5.126;2022-08-02T00:33:40;4.55;;;1.40;;
20511;SDS011;10414;52.074;5.126;2022-08-02T00:36:07;4.85;;;1.50;;
20511;SDS011;10414;52.074;5.126;2022-08-02T00:38:34;5.55;;;1.55;;
20511;SDS011;10414;52.074;5.126;2022-08-02T00:41:01;5.45;;;1.40;;
20511;SDS011;10414;52.074;5.126;2022-08-02T00:43:28;6.00;;;1.60;;
20511;SDS011;10414;52.074;5.126;2022-08-02T00:45:57;5.60;;;1.35;;
20511;SDS011;10414;52.074;5.126;2022-08-02T00:48:23;5.97;;;1.60;;
20511;SDS011;10414;52.074;5.126;2022-08-02T00:50:51;6.32;;;1.90;;
20511;SDS011;10414;52.074;5.126;2022-08-02T00:53:17;4.93;;;1.85;;
20511;SDS011;10414;52.074;5.126;2022-08-02T00:55:44;5.47;;;1.85;;
20511;SDS011;10414;52.074;5.126;2022-08-02T00:58:11;7.63;;;2.13;;
20511;SDS011;10414;52.074;5.126;2022-08-02T01:00:38;4.75;;;1.67;;
20511;SDS011;10414;52.074;5.126;2022-08-02T01:03:07;5.60;;;1.70;;
20511;SDS011;10414;52.074;5.126;2022-08-02T01:05:34;7.03;;;1.80;;
20511;SDS011;10414;52.074;5.126;2022-08-02T01:08:01;5.80;;;1.90;;
20511;SDS011;10414;52.074;5.126;2022-08-02T01:10:28;5.50;;;1.85;;
20511;SDS011;10414;52.074;5.126;2022-08-02T01:12:55;5.60;;;2.10;;
20511;SDS011;10414;52.074;5.126;2022-08-02T01:15:21;4.47;;;1.80;;
20511;SDS011;10414;52.074;5.126;2022-08-02T01:17:51;5.10;;;1.55;;
20511;SDS011;10414;52.074;5.126;2022-08-02T01:23:22;5.32;;;1.98;;
20511;SDS011;10414;52.074;5.126;2022-08-02T01:26:02;5.28;;;1.70;;
20511;SDS011;10414;52.074;5.126;2022-08-02T01:28:45;4.63;;;1.60;;
20511;SDS011;10414;52.074;5.126;2022-08-02T01:31:18;6.80;;;1.70;;
20511;SDS011;10414;52.074;5.126;2022-08-02T01:33:53;4.88;;;1.67;;
20511;SDS011;10414;52.074;5.126;2022-08-02T01:36:24;5.00;;;1.80;;
20511;SDS011;10414;52.074;5.126;2022-08-02T01:38:56;7.93;;;1.75;;
20511;SDS011;10414;52.074;5.126;2022-08-02T01:41:24;6.18;;;1.83;;
20511;SDS011;10414;52.074;5.126;2022-08-02T01:43:56;4.72;;;1.60;;
20511;SDS011;10414;52.074;5.126;2022-08-02T01:46:25;6.55;;;1.75;;
20511;SDS011;10414;52.074;5.126;2022-08-02T01:48:55;3.88;;;1.70;;
20511;SDS011;10414;52.074;5.126;2022-08-02T01:51:24;6.15;;;1.70;;
20511;SDS011;10414;52.074;5.126;2022-08-02T01:54:06;5.22;;;2.03;;
20511;SDS011;10414;52.074;5.126;2022-08-02T01:56:37;5.80;;;1.63;;
20511;SDS011;10414;52.074;5.126;2022-08-02T01:59:07;6.82;;;2.08;;
20511;SDS011;10414;52.074;5.126;2022-08-02T02:01:38;7.13;;;1.85;;
20511;SDS011;10414;52.074;5.126;2022-08-02T02:04:05;6.22;;;1.83;;
20511;SDS011;10414;52.074;5.126;2022-08-02T02:06:35;5.72;;;2.20;;
20511;SDS011;10414;52.074;5.126;2022-08-02T02:09:03;6.22;;;1.80;;
20511;SDS011;10414;52.074;5.126;2022-08-02T02:11:31;7.47;;;1.73;;
20511;SDS011;10414;52.074;5.126;2022-08-02T02:13:59;7.90;;;1.90;;
20511;SDS011;10414;52.074;5.126;2022-08-02T02:16:29;6.18;;;2.38;;
20511;SDS011;10414;52.074;5.126;2022-08-02T02:18:57;5.65;;;2.05;;
20511;SDS011;10414;52.074;5.126;2022-08-02T02:21:26;6.43;;;2.17;;
20511;SDS011;10414;52.074;5.126;2022-08-02T02:23:54;7.32;;;2.00;;
20511;SDS011;10414;52.074;5.126;2022-08-02T02:26:20;6.97;;;2.15;;
20511;SDS011;10414;52.074;5.126;2022-08-02T02:28:49;4.20;;;2.05;;
20511;SDS011;10414;52.074;5.126;2022-08-02T02:31:17;6.05;;;2.08;;
20511;SDS011;10414;52.074;5.126;2022-08-02T02:33:49;7.03;;;2.22;;
20511;SDS011;10414;52.074;5.126;2022-08-02T02:36:20;8.23;;;2.17;;
20511;SDS011;10414;52.074;5.126;2022-08-02T02:38:47;6.15;;;2.20;;
20511;SDS011;10414;52.074;5.126;2022-08-02T02:41:16;8.55;;;2.20;;
20511;SDS011;10414;52.074;5.126;2022-08-02T02:43:45;4.85;;;1.80;;
20511;SDS011;10414;52.074;5.126;2022-08-02T02:46:13;8.18;;;2.35;;
20511;SDS011;10414;52.074;5.126;2022-08-02T02:48:45;7.90;;;2.15;;
20511;SDS011;10414;52.074;5.126;2022-08-02T02:51:14;7.22;;;2.10;;
20511;SDS011;10414;52.074;5.126;2022-08-02T02:53:42;6.50;;;2.00;;
20511;SDS011;10414;52.074;5.126;2022-08-02T02:56:11;5.75;;;2.00;;
20511;SDS011;10414;52.074;5.126;2022-08-02T02:58:38;6.82;;;1.92;;
20511;SDS011;10414;52.074;5.126;2022-08-02T03:01:06;7.57;;;2.13;;
20511;SDS011;10414;52.074;5.126;2022-08-02T03:03:50;6.68;;;1.75;;
20511;SDS011;10414;52.074;5.126;2022-08-02T03:06:19;6.75;;;1.90;;
20511;SDS011;10414;52.074;5.126;2022-08-02T03:08:46;5.25;;;1.83;;
20511;SDS011;10414;52.074;5.126;2022-08-02T03:11:14;6.07;;;2.10;;
20511;SDS011;10414;52.074;5.126;2022-08-02T03:13:42;5.88;;;2.20;;
20511;SDS011;10414;52.074;5.126;2022-08-02T03:16:10;7.72;;;2.10;;
20511;SDS011;10414;52.074;5.126;2022-08-02T03:18:38;4.25;;;1.95;;
20511;SDS011;10414;52.074;5.126;2022-08-02T03:21:07;5.18;;;2.13;;
20511;SDS011;10414;52.074;5.126;2022-08-02T03:23:37;7.68;;;2.20;;
20511;SDS011;10414;52.074;5.126;2022-08-02T03:26:05;5.93;;;1.98;;
20511;SDS011;10414;52.074;5.126;2022-08-02T03:28:32;6.25;;;2.20;;
20511;SDS011;10414;52.074;5.126;2022-08-02T03:30:59;8.05;;;2.38;;
20511;SDS011;10414;52.074;5.126;2022-08-02T03:33:26;6.60;;;1.92;;
20511;SDS011;10414;52.074;5.126;2022-08-02T03:35:54;7.32;;;2.53;;
20511;SDS011;10414;52.074;5.126;2022-08-02T03:38:24;5.78;;;2.10;;
20511;SDS011;10414;52.074;5.126;2022-08-02T03:40:53;5.45;;;2.40;;
20511;SDS011;10414;52.074;5.126;2022-08-02T03:43:21;4.85;;;1.88;;
20511;SDS011;10414;52.074;5.126;2022-08-02T03:45:49;6.32;;;2.35;;
20511;SDS011;10414;52.074;5.126;2022-08-02T03:48:17;5.80;;;2.15;;
20511;SDS011;10414;52.074;5.126;2022-08-02T03:50:44;5.97;;;2.00;;
20511;SDS011;10414;52.074;5.126;2022-08-02T03:53:13;6.97;;;2.53;;
20511;SDS011;10414;52.074;5.126;2022-08-02T03:55:41;8.73;;;2.60;;
20511;SDS011;10414;52.074;5.126;2022-08-02T03:58:11;5.00;;;1.95;;
20511;SDS011;10414;52.074;5.126;2022-08-02T04:00:43;6.45;;;2.20;;
20511;SDS011;10414;52.074;5.126;2022-08-02T04:03:09;6.30;;;2.10;;
20511;SDS011;10414;52.074;5.126;2022-08-02T04:05:37;5.40;;;2.08;;
20511;SDS011;10414;52.074;5.126;2022-08-02T04:08:04;8.27;;;2.40;;
20511;SDS011;10414;52.074;5.126;2022-08-02T04:10:31;8.68;;;2.45;;
20511;SDS011;10414;52.074;5.126;2022-08-02T04:13:20;11.15;;;2.75;;
20511;SDS011;10414;52.074;5.126;2022-08-02T04:15:49;6.22;;;1.92;;
20511;SDS011;10414;52.074;5.126;2022-08-02T04:18:21;6.15;;;2.10;;
20511;SDS011;10414;52.074;5.126;2022-08-02T04:20:54;8.30;;;2.17;;
20511;SDS011;10414;52.074;5.126;2022-08-02T04:23:23;6.05;;;2.22;;
20511;SDS011;10414;52.074;5.126;2022-08-02T04:25:51;6.43;;;2.30;;
20511;SDS011;10414;52.074;5.126;2022-08-02T04:28:21;6.20;;;2.13;;
20511;SDS011;10414;52.074;5.126;2022-08-02T04:30:49;6.87;;;1.93;;
20511;SDS011;10414;52.074;5.126;2022-08-02T04:33:17;7.40;;;2.35;;
20511;SDS011;10414;52.074;5.126;2022-08-02T04:35:44;6.10;;;2.05;;
20511;SDS011;10414;52.074;5.126;2022-08-02T04:38:11;6.72;;;2.40;;
20511;SDS011;10414;52.074;5.126;2022-08-02T04:40:39;7.70;;;2.78;;
20511;SDS011;10414;52.074;5.126;2022-08-02T04:43:06;7.50;;;2.60;;
20511;SDS011;10414;52.074;5.126;2022-08-02T04:45:34;8.18;;;2.28;;
20511;SDS011;10414;52.074;5.126;2022-08-02T04:48:02;9.50;;;3.10;;
20511;SDS011;10414;52.074;5.126;2022-08-02T04:50:30;9.60;;;2.45;;
20511;SDS011;10414;52.074;5.126;2022-08-02T04:52:57;6.68;;;2.50;;
20511;SDS011;10414;52.074;5.126;2022-08-02T04:55:24;4.85;;;2.60;;
20511;SDS011;10414;52.074;5.126;2022-08-02T04:57:52;7.53;;;2.70;;
20511;SDS011;10414;52.074;5.126;2022-08-02T05:00:22;10.48;;;2.90;;
20511;SDS011;10414;52.074;5.126;2022-08-02T05:02:52;6.97;;;2.60;;
20511;SDS011;10414;52.074;5.126;2022-08-02T05:05:19;7.10;;;2.50;;
20511;SDS011;10414;52.074;5.126;2022-08-02T05:07:46;7.03;;;2.70;;
20511;SDS011;10414;52.074;5.126;2022-08-02T05:10:13;6.55;;;2.53;;
20511;SDS011;10414;52.074;5.126;2022-08-02T05:12:40;7.32;;;2.33;;
20511;SDS011;10414;52.074;5.126;2022-08-02T05:15:08;5.22;;;2.85;;
20511;SDS011;10414;52.074;5.126;2022-08-02T05:17:37;6.10;;;2.67;;
20511;SDS011;10414;52.074;5.126;2022-08-02T05:20:05;8.48;;;2.78;;
20511;SDS011;10414;52.074;5.126;2022-08-02T05:22:33;9.75;;;2.75;;
20511;SDS011;10414;52.074;5.126;2022-08-02T05:25:00;8.32;;;3.15;;
20511;SDS011;10414;52.074;5.126;2022-08-02T05:27:27;6.75;;;2.83;;
20511;SDS011;10414;52.074;5.126;2022-08-02T05:29:54;8.27;;;2.60;;
20511;SDS011;10414;52.074;5.126;2022-08-02T05:32:22;6.57;;;2.60;;
20511;SDS011;10414;52.074;5.126;2022-08-02T05:34:49;7.82;;;2.92;;
20511;SDS011;10414;52.074;5.126;2022-08-02T05:37:17;6.70;;;2.42;;
20511;SDS011;10414;52.074;5.126;2022-08-02T05:39:44;6.63;;;2.58;;
20511;SDS011;10414;52.074;5.126;2022-08-02T05:42:11;6.82;;;2.83;;
20511;SDS011;10414;52.074;5.126;2022-08-02T05:44:38;5.45;;;2.70;;
20511;SDS011;10414;52.074;5.126;2022-08-02T05:47:05;8.65;;;2.60;;
20511;SDS011;10414;52.074;5.126;2022-08-02T05:49:32;9.00;;;2.90;;
20511;SDS011;10414;52.074;5.126;2022-08-02T05:52:01;8.10;;;2.83;;
20511;SDS011;10414;52.074;5.126;2022-08-02T05:54:35;6.28;;;2.80;;
20511;SDS011;10414;52.074;5.126;2022-08-02T05:57:08;6.43;;;2.55;;
20511;SDS011;10414;52.074;5.126;2022-08-02T05:59:46;10.55;;;2.90;;
20511;SDS011;10414;52.074;5.126;2022-08-02T06:02:23;8.40;;;3.17;;
20511;SDS011;10414;52.074;5.126;2022-08-02T06:04:55;7.63;;;3.10;;
20511;SDS011;10414;52.074;5.126;2022-08-02T06:07:26;8.85;;;3.70;;
20511;SDS011;10414;52.074;5.126;2022-08-02T06:09:57;9.82;;;3.00;;
20511;SDS011;10414;52.074;5.126;2022-08-02T06:12:25;8.70;;;3.00;;
20511;SDS011;10414;52.074;5.126;2022-08-02T06:14:56;6.70;;;2.50;;
20511;SDS011;10414;52.074;5.126;2022-08-02T06:17:24;6.47;;;2.83;;
20511;SDS011;10414;52.074;5.126;2022-08-02T06:19:52;6.32;;;3.50;;
20511;SDS011;10414;52.074;5.126;2022-08-02T06:22:22;8.98;;;3.70;;
20511;SDS011;10414;52.074;5.126;2022-08-02T06:24:52;8.95;;;3.28;;
20511;SDS011;10414;52.074;5.126;2022-08-02T06:27:22;8.38;;;3.05;;
20511;SDS011;10414;52.074;5.126;2022-08-02T06:30:06;7.75;;;3.58;;
20511;SDS011;10414;52.074;5.126;2022-08-02T06:32:34;8.38;;;3.50;;
20511;SDS011;10414;52.074;5.126;2022-08-02T06:35:02;8.55;;;3.55;;
20511;SDS011;10414;52.074;5.126;2022-08-02T06:37:35;9.27;;;3.80;;
20511;SDS011;10414;52.074;5.126;2022-08-02T06:40:07;7.45;;;4.00;;
20511;SDS011;10414;52.074;5.126;2022-08-02T06:42:45;8.02;;;3.72;;
20511;SDS011;10414;52.074;5.126;2022-08-02T06:45:15;7.97;;;4.15;;
20511;SDS011;10414;52.074;5.126;2022-08-02T06:47:43;9.25;;;4.05;;
20511;SDS011;10414;52.074;5.126;2022-08-02T06:50:10;6.95;;;3.97;;
20511;SDS011;10414;52.074;5.126;2022-08-02T06:52:36;9.77;;;4.10;;
20511;SDS011;10414;52.074;5.126;2022-08-02T06:55:04;7.32;;;4.45;;
20511;SDS011;10414;52.074;5.126;2022-08-02T06:57:32;6.38;;;3.78;;
20511;SDS011;10414;52.074;5.126;2022-08-02T07:00:01;7.50;;;4.03;;
20511;SDS011;10414;52.074;5.126;2022-08-02T07:02:33;12.73;;;4.72;;
20511;SDS011;10414;52.074;5.126;2022-08-02T07:05:00;10.07;;;5.07;;
20511;SDS011;10414;52.074;5.126;2022-08-02T07:07:28;9.00;;;4.60;;
20511;SDS011;10414;52.074;5.126;2022-08-02T07:09:55;8.02;;;4.30;;
20511;SDS011;10414;52.074;5.126;2022-08-02T07:12:23;8.57;;;5.40;;
20511;SDS011;10414;52.074;5.126;2022-08-02T07:14:50;9.68;;;5.10;;
20511;SDS011;10414;52.074;5.126;2022-08-02T07:17:18;10.82;;;4.80;;
20511;SDS011;10414;52.074;5.126;2022-08-02T07:19:45;10.07;;;5.80;;
20511;SDS011;10414;52.074;5.126;2022-08-02T07:22:12;12.23;;;6.18;;
20511;SDS011;10414;52.074;5.126;2022-08-02T07:24:39;14.50;;;5.88;;
20511;SDS011;10414;52.074;5.126;2022-08-02T07:27:06;8.98;;;5.05;;
20511;SDS011;10414;52.074;5.126;2022-08-02T07:29:33;10.80;;;6.93;;
20511;SDS011;10414;52.074;5.126;2022-08-02T07:32:00;12.38;;;6.40;;
20511;SDS011;10414;52.074;5.126;2022-08-02T07:34:28;12.70;;;6.88;;
20511;SDS011;10414;52.074;5.126;2022-08-02T07:36:55;11.55;;;6.60;;
20511;SDS011;10414;52.074;5.126;2022-08-02T07:39:22;12.55;;;7.72;;
20511;SDS011;10414;52.074;5.126;2022-08-02T07:41:49;13.82;;;6.75;;
20511;SDS011;10414;52.074;5.126;2022-08-02T07:44:17;12.38;;;6.97;;
20511;SDS011;10414;52.074;5.126;2022-08-02T07:46:46;14.97;;;7.17;;
20511;SDS011;10414;52.074;5.126;2022-08-02T07:49:13;15.75;;;6.75;;
20511;SDS011;10414;52.074;5.126;2022-08-02T07:51:44;11.48;;;6.40;;
20511;SDS011;10414;52.074;5.126;2022-08-02T07:54:11;12.00;;;6.10;;
20511;SDS011;10414;52.074;5.126;2022-08-02T07:56:38;10.93;;;6.22;;
20511;SDS011;10414;52.074;5.126;2022-08-02T07:59:05;11.07;;;6.15;;
20511;SDS011;10414;52.074;5.126;2022-08-02T08:01:34;7.55;;;4.38;;
20511;SDS011;10414;52.074;5.126;2022-08-02T08:04:01;7.82;;;4.55;;
20511;SDS011;10414;52.074;5.126;2022-08-02T08:06:28;11.80;;;5.75;;
20511;SDS011;10414;52.074;5.126;2022-08-02T08:08:57;10.40;;;5.85;;
20511;SDS011;10414;52.074;5.126;2022-08-02T08:11:24;9.38;;;5.22;;
20511;SDS011;10414;52.074;5.126;2022-08-02T08:13:51;9.90;;;5.03;;
20511;SDS011;10414;52.074;5.126;2022-08-02T08:16:18;9.20;;;4.53;;
20511;SDS011;10414;52.074;5.126;2022-08-02T08:18:45;7.97;;;4.32;;
20511;SDS011;10414;52.074;5.126;2022-08-02T08:21:13;9.05;;;4.75;;
20511;SDS011;10414;52.074;5.126;2022-08-02T08:23:40;7.28;;;4.30;;
20511;SDS011;10414;52.074;5.126;2022-08-02T08:26:08;9.27;;;3.85;;
20511;SDS011;10414;52.074;5.126;2022-08-02T08:28:35;6.00;;;3.75;;
20511;SDS011;10414;52.074;5.126;2022-08-02T08:31:02;7.35;;;3.63;;
20511;SDS011;10414;52.074;5.126;2022-08-02T08:33:29;6.35;;;4.22;;
20511;SDS011;10414;52.074;5.126;2022-08-02T08:35:56;5.78;;;3.88;;
20511;SDS011;10414;52.074;5.126;2022-08-02T08:38:23;7.70;;;3.40;;
20511;SDS011;10414;52.074;5.126;2022-08-02T08:40:50;9.57;;;3.90;;
20511;SDS011;10414;52.074;5.126;2022-08-02T08:43:19;6.97;;;4.13;;
20511;SDS011;10414;52.074;5.126;2022-08-02T08:45:46;8.00;;;3.83;;
20511;SDS011;10414;52.074;5.126;2022-08-02T08:48:15;8.55;;;4.78;;
20511;SDS011;10414;52.074;5.126;2022-08-02T08:50:45;7.15;;;4.47;;
20511;SDS011;10414;52.074;5.126;2022-08-02T08:53:15;9.85;;;5.03;;
20511;SDS011;10414;52.074;5.126;2022-08-02T08:55:43;8.75;;;5.45;;
20511;SDS011;10414;52.074;5.126;2022-08-02T08:58:11;8.02;;;4.70;;
20511;SDS011;10414;52.074;5.126;2022-08-02T09:00:40;10.38;;;5.82;;
20511;SDS011;10414;52.074;5.126;2022-08-02T09:03:07;11.93;;;5.90;;
20511;SDS011;10414;52.074;5.126;2022-08-02T09:05:34;12.52;;;7.38;;
20511;SDS011;10414;52.074;5.126;2022-08-02T09:08:02;11.73;;;7.20;;
20511;SDS011;10414;52.074;5.126;2022-08-02T09:10:31;11.93;;;6.97;;
20511;SDS011;10414;52.074;5.126;2022-08-02T09:15:33;10.40;;;6.72;;
20511;SDS011;10414;52.074;5.126;2022-08-02T09:18:02;11.73;;;7.70;;
20511;SDS011;10414;52.074;5.126;2022-08-02T09:20:31;10.68;;;7.53;;
20511;SDS011;10414;52.074;5.126;2022-08-02T09:23:04;10.95;;;7.40;;
20511;SDS011;10414;52.074;5.126;2022-08-02T09:25:33;14.82;;;8.40;;
20511;SDS011;10414;52.074;5.126;2022-08-02T09:28:01;15.50;;;8.75;;
20511;SDS011;10414;52.074;5.126;2022-08-02T09:30:28;13.85;;;8.13;;
20511;SDS011;10414;52.074;5.126;2022-08-02T09:32:56;13.70;;;8.05;;
20511;SDS011;10414;52.074;5.126;2022-08-02T09:35:31;11.55;;;7.28;;
20511;SDS011;10414;52.074;5.126;2022-08-02T09:38:09;13.30;;;7.20;;
20511;SDS011;10414;52.074;5.126;2022-08-02T09:40:37;12.05;;;7.70;;
20511;SDS011;10414;52.074;5.126;2022-08-02T09:43:05;15.32;;;7.65;;
20511;SDS011;10414;52.074;5.126;2022-08-02T09:45:34;11.20;;;7.57;;
20511;SDS011;10414;52.074;5.126;2022-08-02T09:48:02;13.95;;;7.30;;
20511;SDS011;10414;52.074;5.126;2022-08-02T09:53:01;12.80;;;8.07;;
20511;SDS011;10414;52.074;5.126;2022-08-02T09:55:28;14.75;;;7.55;;
20511;SDS011;10414;52.074;5.126;2022-08-02T09:57:55;12.30;;;7.30;;
20511;SDS011;10414;52.074;5.126;2022-08-02T10:00:22;11.50;;;6.97;;
20511;SDS011;10414;52.074;5.126;2022-08-02T10:03:05;11.15;;;7.40;;
20511;SDS011;10414;52.074;5.126;2022-08-02T10:05:45;13.27;;;6.85;;
20511;SDS011;10414;52.074;5.126;2022-08-02T10:08:14;13.27;;;5.95;;
20511;SDS011;10414;52.074;5.126;2022-08-02T10:10:41;8.90;;;5.18;;
20511;SDS011;10414;52.074;5.126;2022-08-02T10:13:08;9.70;;;4.97;;
20511;SDS011;10414;52.074;5.126;2022-08-02T10:15:36;9.18;;;4.75;;
20511;SDS011;10414;52.074;5.126;2022-08-02T10:18:04;6.63;;;4.20;;
20511;SDS011;10414;52.074;5.126;2022-08-02T10:20:32;6.72;;;4.22;;
20511;SDS011;10414;52.074;5.126;2022-08-02T10:23:08;6.25;;;4.35;;
20511;SDS011;10414;52.074;5.126;2022-08-02T10:25:38;7.70;;;4.22;;
20511;SDS011;10414;52.074;5.126;2022-08-02T10:28:07;7.13;;;4.00;;
20511;SDS011;10414;52.074;5.126;2022-08-02T10:30:35;7.47;;;3.72;;
20511;SDS011;10414;52.074;5.126;2022-08-02T10:33:05;6.75;;;3.25;;
20511;SDS011;10414;52.074;5.126;2022-08-02T10:38:04;6.60;;;3.20;;
20511;SDS011;10414;52.074;5.126;2022-08-02T10:43:12;4.35;;;2.83;;
20511;SDS011;10414;52.074;5.126;2022-08-02T10:46:20;4.68;;;2.53;;
20511;SDS011;10414;52.074;5.126;2022-08-02T10:49:05;4.72;;;2.80;;
20511;SDS011;10414;52.074;5.126;2022-08-02T10:54:23;4.68;;;2.70;;
20511;SDS011;10414;52.074;5.126;2022-08-02T10:56:53;4.57;;;2.38;;
20511;SDS011;10414;52.074;5.126;2022-08-02T10:59:22;5.65;;;2.65;;
20511;SDS011;10414;52.074;5.126;2022-08-02T11:01:50;3.92;;;2.53;;
20511;SDS011;10414;52.074;5.126;2022-08-02T11:04:25;7.30;;;2.80;;
20511;SDS011;10414;52.074;5.126;2022-08-02T11:09:38;7.20;;;2.80;;
20511;SDS011;10414;52.074;5.126;2022-08-02T11:12:07;4.97;;;2.42;;
20511;SDS011;10414;52.074;5.126;2022-08-02T11:14:36;5.10;;;1.95;;
20511;SDS011;10414;52.074;5.126;2022-08-02T11:17:08;4.65;;;2.13;;
20511;SDS011;10414;52.074;5.126;2022-08-02T11:22:43;6.25;;;1.83;;
20511;SDS011;10414;52.074;5.126;2022-08-02T11:28:07;5.75;;;1.83;;
20511;SDS011;10414;52.074;5.126;2022-08-02T11:30:36;5.43;;;2.20;;
20511;SDS011;10414;52.074;5.126;2022-08-02T11:33:04;5.28;;;2.20;;
20511;SDS011;10414;52.074;5.126;2022-08-02T11:35:32;4.78;;;1.90;;
20511;SDS011;10414;52.074;5.126;2022-08-02T11:38:15;4.72;;;2.00;;
20511;SDS011;10414;52.074;5.126;2022-08-02T11:40:44;4.07;;;1.90;;
20511;SDS011;10414;52.074;5.126;2022-08-02T11:43:20;4.30;;;1.90;;
20511;SDS011;10414;52.074;5.126;2022-08-02T11:45:48;4.65;;;2.10;;
20511;SDS011;10414;52.074;5.126;2022-08-02T11:48:30;3.95;;;1.80;;
20511;SDS011;10414;52.074;5.126;2022-08-02T11:51:02;4.13;;;2.25;;
20511;SDS011;10414;52.074;5.126;2022-08-02T11:53:39;5.07;;;1.85;;
20511;SDS011;10414;52.074;5.126;2022-08-02T11:56:08;8.63;;;2.10;;
20511;SDS011;10414;52.074;5.126;2022-08-02T11:58:37;4.53;;;1.80;;
20511;SDS011;10414;52.074;5.126;2022-08-02T12:01:04;3.58;;;1.77;;
20511;SDS011;10414;52.074;5.126;2022-08-02T12:03:32;3.90;;;2.20;;
20511;SDS011;10414;52.074;5.126;2022-08-02T12:06:00;5.03;;;2.30;;
20511;SDS011;10414;52.074;5.126;2022-08-02T12:08:29;7.35;;;2.70;;
20511;SDS011;10414;52.074;5.126;2022-08-02T12:10:56;4.70;;;2.30;;
20511;SDS011;10414;52.074;5.126;2022-08-02T12:13:27;6.22;;;2.47;;
20511;SDS011;10414;52.074;5.126;2022-08-02T12:15:55;6.68;;;2.30;;
20511;SDS011;10414;52.074;5.126;2022-08-02T12:18:47;8.53;;;3.17;;
20511;SDS011;10414;52.074;5.126;2022-08-02T12:21:31;6.72;;;2.80;;
20511;SDS011;10414;52.074;5.126;2022-08-02T12:23:59;6.18;;;2.40;;
20511;SDS011;10414;52.074;5.126;2022-08-02T12:26:27;6.45;;;2.40;;
20511;SDS011;10414;52.074;5.126;2022-08-02T12:28:55;5.72;;;3.42;;
20511;SDS011;10414;52.074;5.126;2022-08-02T12:31:38;7.07;;;2.67;;
20511;SDS011;10414;52.074;5.126;2022-08-02T12:34:10;7.75;;;3.13;;
20511;SDS011;10414;52.074;5.126;2022-08-02T12:36:41;7.10;;;2.75;;
20511;SDS011;10414;52.074;5.126;2022-08-02T12:39:10;9.35;;;3.15;;
20511;SDS011;10414;52.074;5.126;2022-08-02T12:41:39;10.35;;;3.10;;
20511;SDS011;10414;52.074;5.126;2022-08-02T12:44:13;7.22;;;3.15;;
20511;SDS011;10414;52.074;5.126;2022-08-02T12:46:44;5.68;;;2.40;;
20511;SDS011;10414;52.074;5.126;2022-08-02T12:49:24;6.70;;;2.78;;
20511;SDS011;10414;52.074;5.126;2022-08-02T12:51:51;7.93;;;2.58;;
20511;SDS011;10414;52.074;5.126;2022-08-02T12:54:18;6.82;;;2.17;;
20511;SDS011;10414;52.074;5.126;2022-08-02T12:56:46;4.47;;;2.10;;
20511;SDS011;10414;52.074;5.126;2022-08-02T12:59:14;5.88;;;2.40;;
20511;SDS011;10414;52.074;5.126;2022-08-02T13:01:42;6.53;;;2.50;;
20511;SDS011;10414;52.074;5.126;2022-08-02T13:04:11;5.30;;;2.25;;
20511;SDS011;10414;52.074;5.126;2022-08-02T13:06:38;7.60;;;2.10;;
20511;SDS011;10414;52.074;5.126;2022-08-02T13:09:13;3.88;;;1.80;;
20511;SDS011;10414;52.074;5.126;2022-08-02T13:11:41;7.80;;;2.30;;
20511;SDS011;10414;52.074;5.126;2022-08-02T13:14:09;5.45;;;2.28;;
20511;SDS011;10414;52.074;5.126;2022-08-02T13:16:36;8.13;;;2.15;;
20511;SDS011;10414;52.074;5.126;2022-08-02T13:19:04;4.32;;;2.40;;
20511;SDS011;10414;52.074;5.126;2022-08-02T13:21:33;5.80;;;2.38;;
20511;SDS011;10414;52.074;5.126;2022-08-02T13:24:00;4.78;;;2.10;;
20511;SDS011;10414;52.074;5.126;2022-08-02T13:26:27;4.35;;;2.17;;
20511;SDS011;10414;52.074;5.126;2022-08-02T13:28:53;4.18;;;1.77;;
20511;SDS011;10414;52.074;5.126;2022-08-02T13:31:20;4.38;;;1.85;;
20511;SDS011;10414;52.074;5.126;2022-08-02T13:33:47;4.47;;;1.75;;
20511;SDS011;10414;52.074;5.126;2022-08-02T13:36:14;4.22;;;1.65;;
20511;SDS011;10414;52.074;5.126;2022-08-02T13:38:43;7.30;;;1.80;;
20511;SDS011;10414;52.074;5.126;2022-08-02T13:41:10;7.70;;;1.92;;
20511;SDS011;10414;52.074;5.126;2022-08-02T13:43:38;4.43;;;1.70;;
20511;SDS011;10414;52.074;5.126;2022-08-02T13:46:05;5.25;;;2.00;;
20511;SDS011;10414;52.074;5.126;2022-08-02T13:48:33;6.65;;;2.30;;
20511;SDS011;10414;52.074;5.126;2022-08-02T13:51:00;4.78;;;1.85;;
20511;SDS011;10414;52.074;5.126;2022-08-02T13:53:30;5.60;;;1.90;;
20511;SDS011;10414;52.074;5.126;2022-08-02T13:55:58;5.07;;;1.80;;
20511;SDS011;10414;52.074;5.126;2022-08-02T13:58:26;5.43;;;2.00;;
20511;SDS011;10414;52.074;5.126;2022-08-02T14:00:53;6.57;;;1.70;;
20511;SDS011;10414;52.074;5.126;2022-08-02T14:03:21;5.35;;;1.73;;
20511;SDS011;10414;52.074;5.126;2022-08-02T14:05:48;7.25;;;1.70;;
20511;SDS011;10414;52.074;5.126;2022-08-02T14:08:15;5.57;;;1.70;;
20511;SDS011;10414;52.074;5.126;2022-08-02T14:10:43;6.82;;;2.08;;
20511;SDS011;10414;52.074;5.126;2022-08-02T14:13:12;6.88;;;1.70;;
20511;SDS011;10414;52.074;5.126;2022-08-02T14:15:39;4.63;;;1.92;;
20511;SDS011;10414;52.074;5.126;2022-08-02T14:18:06;5.47;;;1.73;;
20511;SDS011;10414;52.074;5.126;2022-08-02T14:20:34;6.80;;;1.75;;
20511;SDS011;10414;52.074;5.126;2022-08-02T14:23:01;8.20;;;2.10;;
20511;SDS011;10414;52.074;5.126;2022-08-02T14:25:28;6.45;;;2.10;;
20511;SDS011;10414;52.074;5.126;2022-08-02T14:27:55;9.23;;;2.15;;
20511;SDS011;10414;52.074;5.126;2022-08-02T14:30:23;5.57;;;1.90;;
20511;SDS011;10414;52.074;5.126;2022-08-02T14:32:51;6.38;;;2.00;;
20511;SDS011;10414;52.074;5.126;2022-08-02T14:35:18;4.15;;;2.00;;
20511;SDS011;10414;52.074;5.126;2022-08-02T14:37:45;5.28;;;1.80;;
20511;SDS011;10414;52.074;5.126;2022-08-02T14:40:12;4.68;;;1.80;;
20511;SDS011;10414;52.074;5.126;2022-08-02T14:42:40;11.20;;;2.30;;
20511;SDS011;10414;52.074;5.126;2022-08-02T14:45:07;8.75;;;2.20;;
20511;SDS011;10414;52.074;5.126;2022-08-02T14:47:36;4.70;;;1.90;;
20511;SDS011;10414;52.074;5.126;2022-08-02T14:50:03;11.98;;;2.35;;
20511;SDS011;10414;52.074;5.126;2022-08-02T14:52:31;5.00;;;1.70;;
20511;SDS011;10414;52.074;5.126;2022-08-02T14:54:59;6.47;;;2.05;;
20511;SDS011;10414;52.074;5.126;2022-08-02T14:57:26;6.05;;;1.88;;
20511;SDS011;10414;52.074;5.126;2022-08-02T14:59:53;5.72;;;1.90;;
20511;SDS011;10414;52.074;5.126;2022-08-02T15:02:21;7.05;;;2.00;;
20511;SDS011;10414;52.074;5.126;2022-08-02T15:04:49;6.40;;;1.58;;
20511;SDS011;10414;52.074;5.126;2022-08-02T15:07:17;5.55;;;1.70;;
20511;SDS011;10414;52.074;5.126;2022-08-02T15:09:46;5.97;;;1.67;;
20511;SDS011;10414;52.074;5.126;2022-08-02T15:12:13;5.53;;;1.60;;
20511;SDS011;10414;52.074;5.126;2022-08-02T15:14:41;6.78;;;1.88;;
20511;SDS011;10414;52.074;5.126;2022-08-02T15:17:09;5.35;;;1.50;;
20511;SDS011;10414;52.074;5.126;2022-08-02T15:19:37;8.50;;;1.52;;
20511;SDS011;10414;52.074;5.126;2022-08-02T15:22:07;8.65;;;2.28;;